Time;durP1;ratioP1;P1;durP2;ratioP2;P2;SDS_P1;SDS_P2;PMS_P1;PMS_P2;Temp;Humidity;BMP_temperature;BMP_pressure;BME280_temperature;BME280_humidity;BME280_pressure;Samples;Min_cycle;Max_cycle;Signal;HPM_P1;HPM_P2
2023/02/18 00:02:21;;;;;;;1.83;1.10;;;;;;;6.73;77.35;100736.06;4971823;28;20185;-76
2023/02/18 00:04:46;;;;;;;3.13;0.57;;;;;;;6.77;77.66;100748.00;4972071;28;20182;-74
2023/02/18 00:07:11;;;;;;;0.40;0.40;;;;;;;6.80;77.10;100733.88;4972243;28;20216;-77
2023/02/18 00:09:37;;;;;;;1.33;0.37;;;;;;;6.78;77.73;100730.63;4971231;28;20496;-77
2023/02/18 00:12:03;;;;;;;0.53;0.37;;;;;;;6.78;77.48;100719.75;4972123;28;20221;-75
2023/02/18 00:14:28;;;;;;;3.97;0.93;;;;;;;6.79;77.70;100722.19;4972087;28;20221;-79
2023/02/18 00:16:53;;;;;;;1.23;0.50;;;;;;;6.82;77.72;100723.56;4971949;28;20206;-74
2023/02/18 00:19:19;;;;;;;1.73;0.93;;;;;;;6.82;77.61;100727.09;4972149;28;20614;-78
2023/02/18 00:21:45;;;;;;;0.93;0.67;;;;;;;6.77;77.77;100729.81;4972025;28;20580;-77
2023/02/18 00:24:16;;;;;;;7.83;0.97;;;;;;;6.77;78.03;100727.09;4971738;28;20186;-77
2023/02/18 00:26:42;;;;;;;3.20;1.40;;;;;;;6.74;78.10;100724.94;4971912;28;20233;-78
2023/02/18 00:29:07;;;;;;;0.93;0.30;;;;;;;6.73;78.23;100728.75;4971907;28;20178;-75
2023/02/18 00:31:35;;;;;;;1.87;1.00;;;;;;;6.71;77.92;100725.50;4971860;28;20188;-75
2023/02/18 00:34:02;;;;;;;4.83;0.50;;;;;;;6.67;78.22;100723.63;4971552;28;20197;-72
2023/02/18 00:36:28;;;;;;;0.40;0.40;;;;;;;6.76;78.13;100717.31;4971725;28;20212;-78
2023/02/18 00:38:56;;;;;;;0.67;0.57;;;;;;;6.76;77.58;100732.81;4971756;28;20177;-77
2023/02/18 00:41:24;;;;;;;1.53;0.27;;;;;;;6.71;77.96;100736.34;4971654;28;20269;-78
2023/02/18 00:43:49;;;;;;;0.10;0.10;;;;;;;6.69;78.32;100733.13;4971460;28;20182;-76
2023/02/18 00:46:14;;;;;;;2.97;0.43;;;;;;;6.64;78.67;100727.69;4971773;28;20174;-77
2023/02/18 00:48:40;;;;;;;0.10;0.10;;;;;;;6.62;78.84;100737.22;4971714;28;20181;-78
2023/02/18 00:51:06;;;;;;;2.70;0.67;;;;;;;6.64;78.87;100730.41;4971607;28;20532;-71
2023/02/18 00:53:32;;;;;;;3.80;0.87;;;;;;;6.68;78.67;100728.78;4971460;28;20220;-72
2023/02/18 00:55:58;;;;;;;3.97;1.00;;;;;;;6.71;78.56;100727.41;4971206;28;20304;-76
2023/02/18 00:58:23;;;;;;;3.53;0.80;;;;;;;6.73;78.23;100733.38;4971692;28;20311;-73
2023/02/18 01:00:49;;;;;;;3.07;0.97;;;;;;;6.75;78.39;100739.31;4971600;28;20178;-76
2023/02/18 01:03:15;;;;;;;5.00;0.93;;;;;;;6.71;78.56;100741.78;4971553;28;20174;-77
2023/02/18 01:05:40;;;;;;;0.83;0.57;;;;;;;6.68;78.76;100736.94;4970020;28;20188;-74
2023/02/18 01:08:08;;;;;;;1.90;1.07;;;;;;;6.72;78.22;100734.47;4971527;28;20764;-75
2023/02/18 01:10:35;;;;;;;13.53;1.07;;;;;;;6.72;78.26;100731.75;4971387;28;20645;-74
2023/02/18 01:13:03;;;;;;;0.50;0.47;;;;;;;6.62;78.95;100740.72;4971454;28;20591;-74
2023/02/18 01:15:28;;;;;;;1.63;0.53;;;;;;;6.51;79.65;100748.13;4974896;28;20648;-74
2023/02/18 01:17:54;;;;;;;0.80;0.20;;;;;;;6.54;79.82;100741.31;4975483;28;20209;-75
2023/02/18 01:20:19;;;;;;;13.67;1.67;;;;;;;6.55;79.86;100738.31;4975373;28;20616;-75
2023/02/18 01:22:45;;;;;;;4.33;0.60;;;;;;;6.59;79.94;100732.34;4975268;28;20265;-76
2023/02/18 01:25:11;;;;;;;1.20;0.30;;;;;;;6.64;79.96;100740.44;4974903;28;20256;-74
2023/02/18 01:27:37;;;;;;;0.17;0.17;;;;;;;6.69;79.67;100743.97;4975108;28;20280;-75
2023/02/18 01:30:07;;;;;;;9.37;0.87;;;;;;;6.71;79.68;100740.97;4975227;28;20269;-76
2023/02/18 01:32:32;;;;;;;4.07;0.63;;;;;;;6.72;79.91;100742.59;4975034;28;20178;-77
2023/02/18 01:35:01;;;;;;;3.80;1.20;;;;;;;6.77;79.93;100740.66;4974116;28;20772;-76
2023/02/18 01:37:26;;;;;;;0.53;0.07;;;;;;;6.78;79.91;100742.28;4973571;28;20568;-75
2023/02/18 01:39:51;;;;;;;0.90;0.90;;;;;;;6.78;79.81;100742.28;4973712;28;20184;-74
2023/02/18 01:42:22;;;;;;;0.93;0.37;;;;;;;6.78;79.79;100753.16;4973689;28;20189;-75
2023/02/18 01:44:48;;;;;;;2.27;0.50;;;;;;;6.80;79.87;100734.69;4973462;28;20667;-73
2023/02/18 01:47:15;;;;;;;2.57;0.70;;;;;;;6.83;80.22;100736.03;4973613;28;20177;-73
2023/02/18 01:49:42;;;;;;;2.43;0.73;;;;;;;6.88;80.40;100721.63;4973519;28;20178;-76
2023/02/18 01:52:12;;;;;;;4.77;0.67;;;;;;;6.93;80.45;100735.16;4973479;28;20236;-75
2023/02/18 01:54:46;;;;;;;1.20;0.63;;;;;;;6.97;80.31;100737.06;4973649;28;20178;-76
2023/02/18 01:57:21;;;;;;;2.30;0.63;;;;;;;6.99;80.83;100732.16;4973409;28;20202;-74
2023/02/18 01:59:54;;;;;;;8.43;1.23;;;;;;;7.01;80.84;100729.97;4973603;28;20659;-75
2023/02/18 02:02:23;;;;;;;1.17;0.47;;;;;;;7.02;80.60;100730.78;4973350;28;20538;-76
2023/02/18 02:04:49;;;;;;;3.70;1.20;;;;;;;6.98;80.97;100730.53;4973422;28;20309;-73
2023/02/18 02:07:17;;;;;;;2.20;0.93;;;;;;;6.94;81.48;100729.44;4973346;28;20272;-76
2023/02/18 02:09:43;;;;;;;0.83;0.47;;;;;;;6.98;81.94;100725.09;4973473;28;20185;-75
2023/02/18 02:12:39;;;;;;;20.80;1.07;;;;;;;6.98;82.12;100719.66;4973236;28;20650;-75
2023/02/18 02:15:25;;;;;;;0.87;0.50;;;;;;;6.94;83.40;100723.19;4972839;28;20178;-71
2023/02/18 02:18:09;;;;;;;2.10;0.43;;;;;;;6.92;84.10;100711.81;4973099;28;20272;-76
2023/02/18 02:20:59;;;;;;;1.23;0.77;;;;;;;6.86;85.31;100705.59;4973221;28;20638;-76
2023/02/18 02:24:03;;;;;;;4.67;0.97;;;;;;;6.85;86.38;100704.78;4972877;28;20174;-73
2023/02/18 02:26:34;;;;;;;3.80;1.03;;;;;;;6.83;87.53;100698.03;4972854;28;20262;-75
2023/02/18 02:29:14;;;;;;;1.17;0.80;;;;;;;6.82;87.78;100690.97;4973341;28;20182;-76
2023/02/18 02:32:17;;;;;;;6.07;1.90;;;;;;;6.82;88.83;100696.41;4972869;28;20527;-76
2023/02/18 02:34:55;;;;;;;9.40;1.43;;;;;;;6.83;88.61;100695.31;4926606;28;1314248;-77
2023/02/18 02:37:43;;;;;;;0.63;0.63;;;;;;;6.84;89.17;100707.78;4974018;28;20236;-73
2023/02/18 02:40:27;;;;;;;30.43;2.00;;;;;;;6.87;89.95;100707.22;4973921;28;20638;-74
2023/02/18 02:43:18;;;;;;;1.57;0.70;;;;;;;6.88;90.39;100697.19;4973884;28;20232;-74
2023/02/18 02:46:10;;;;;;;2.17;1.50;;;;;;;6.92;90.51;100700.94;4973765;28;20250;-73
2023/02/18 02:48:53;;;;;;;3.13;1.43;;;;;;;6.94;90.90;100685.97;4973678;28;20175;-73
2023/02/18 02:51:54;;;;;;;10.13;2.13;;;;;;;6.98;91.84;100694.41;4973748;28;20180;-72
2023/02/18 02:54:23;;;;;;;6.43;1.27;;;;;;;6.99;91.91;100688.69;4964990;28;20277;-73
2023/02/18 02:56:49;;;;;;;3.13;1.97;;;;;;;7.00;92.69;100690.31;4973488;28;20229;-74
2023/02/18 02:59:22;;;;;;;2.00;1.87;;;;;;;6.99;93.29;100680.53;4973753;28;20629;-73
2023/02/18 03:01:59;;;;;;;6.80;1.07;;;;;;;6.99;94.32;100677.00;4973489;28;20378;-75
2023/02/18 03:04:50;;;;;;;12.23;1.93;;;;;;;6.99;95.54;100672.38;4973748;28;20317;-77
2023/02/18 03:07:30;;;;;;;2.93;1.70;;;;;;;6.99;96.10;100672.38;4973381;28;20178;-74
2023/02/18 03:10:14;;;;;;;2.50;2.07;;;;;;;7.01;97.10;100669.38;4973543;28;20177;-75
2023/02/18 03:13:06;;;;;;;20.27;2.63;;;;;;;7.00;98.16;100673.19;4973396;28;20634;-76
2023/02/18 03:15:46;;;;;;;1.90;1.80;;;;;;;7.00;98.71;100667.78;4973025;28;20253;-73
2023/02/18 03:18:15;;;;;;;10.90;3.13;;;;;;;7.00;99.31;100663.16;4973449;28;20488;-76
2023/02/18 03:20:57;;;;;;;2.30;1.53;;;;;;;7.00;99.65;100659.63;4973205;28;20193;-73
2023/02/18 03:23:29;;;;;;;6.20;3.30;;;;;;;7.03;100.00;100662.56;4973180;28;20205;-75
2023/02/18 03:25:57;;;;;;;4.20;2.80;;;;;;;7.04;100.00;100660.66;4972836;28;20185;-74
2023/02/18 03:28:25;;;;;;;4.43;3.27;;;;;;;7.05;100.00;100652.22;4973022;28;20206;-74
2023/02/18 03:30:57;;;;;;;4.03;3.47;;;;;;;7.08;100.00;100650.84;4971683;28;20185;-78
2023/02/18 03:33:31;;;;;;;3.23;2.23;;;;;;;7.11;100.00;100642.16;4972860;28;20189;-75
2023/02/18 03:35:57;;;;;;;4.30;3.47;;;;;;;7.10;100.00;100625.06;4972780;28;20198;-75
2023/02/18 03:38:28;;;;;;;6.23;3.77;;;;;;;7.13;100.00;100621.75;4972393;28;20173;-73
2023/02/18 03:40:54;;;;;;;6.83;2.97;;;;;;;7.16;100.00;100617.66;4972862;28;20178;-75
2023/02/18 03:43:19;;;;;;;4.27;3.17;;;;;;;7.18;100.00;100606.50;4972736;28;20187;-74
2023/02/18 03:45:45;;;;;;;8.83;2.47;;;;;;;7.16;100.00;100601.34;4972515;28;20182;-74
2023/02/18 03:48:10;;;;;;;3.43;2.37;;;;;;;7.15;100.00;100597.03;4972618;28;20256;-72
2023/02/18 03:50:35;;;;;;;8.13;2.53;;;;;;;7.11;100.00;100595.97;4972661;28;20285;-73
2023/02/18 03:53:01;;;;;;;6.90;2.60;;;;;;;7.09;100.00;100590.03;4972511;28;20737;-75
2023/02/18 03:55:26;;;;;;;3.90;2.27;;;;;;;7.10;100.00;100597.06;4972379;28;20534;-74
2023/02/18 03:57:52;;;;;;;3.70;3.10;;;;;;;7.09;100.00;100607.13;4972418;28;20577;-77
2023/02/18 04:00:18;;;;;;;2.40;2.30;;;;;;;7.11;100.00;100595.97;4972518;28;20261;-78
2023/02/18 04:02:43;;;;;;;2.40;2.27;;;;;;;7.10;100.00;100603.31;4972575;28;20174;-71
2023/02/18 04:05:09;;;;;;;5.37;2.73;;;;;;;7.08;100.00;100594.63;4972117;28;20729;-73
2023/02/18 04:07:34;;;;;;;2.63;1.70;;;;;;;7.10;100.00;100588.91;4972259;28;20184;-76
2023/02/18 04:10:00;;;;;;;4.17;2.33;;;;;;;7.13;100.00;100586.44;4972294;28;20174;-73
2023/02/18 04:12:25;;;;;;;0.10;0.10;;;;;;;7.14;100.00;100588.06;4972485;28;20177;-72
2023/02/18 04:14:50;;;;;;;2.10;1.90;;;;;;;7.14;100.00;100579.91;4971984;28;20202;-72
2023/02/18 04:17:16;;;;;;;1.57;1.47;;;;;;;7.17;100.00;100581.25;4972148;28;20205;-77
2023/02/18 04:19:41;;;;;;;6.43;5.77;;;;;;;7.19;100.00;100578.22;4972168;28;20201;-73
2023/02/18 04:22:06;;;;;;;0.77;0.77;;;;;;;7.18;100.00;100571.19;4971985;28;20178;-76
2023/02/18 04:24:32;;;;;;;1.03;1.03;;;;;;;7.12;100.00;100562.28;4971854;28;20178;-73
2023/02/18 04:26:57;;;;;;;9.33;3.13;;;;;;;7.10;100.00;100568.00;4972063;28;20708;-76
2023/02/18 04:29:22;;;;;;;8.83;4.07;;;;;;;7.03;100.00;100564.78;4972046;28;20461;-76
2023/02/18 04:31:47;;;;;;;3.77;3.27;;;;;;;7.00;100.00;100565.34;4971898;28;20170;-74
2023/02/18 04:34:13;;;;;;;12.57;4.40;;;;;;;6.99;100.00;100558.31;4971521;28;20649;-76
2023/02/18 04:36:38;;;;;;;4.60;4.20;;;;;;;6.94;100.00;100561.03;4971757;28;20340;-73
2023/02/18 04:39:04;;;;;;;5.40;3.93;;;;;;;6.91;100.00;100552.66;4972070;28;20178;-73
2023/02/18 04:41:29;;;;;;;3.50;3.20;;;;;;;6.85;100.00;100543.75;4971709;28;20249;-73
2023/02/18 04:43:54;;;;;;;6.87;5.40;;;;;;;6.81;100.00;100540.00;4971882;28;20529;-72
2023/02/18 04:46:20;;;;;;;5.57;3.83;;;;;;;6.77;100.00;100538.94;4971792;28;20268;-75
2023/02/18 04:48:45;;;;;;;2.43;2.23;;;;;;;6.73;100.00;100527.81;4971722;28;20387;-77
2023/02/18 04:51:10;;;;;;;1.30;1.20;;;;;;;6.75;100.00;100520.19;4971534;28;20182;-72
2023/02/18 04:53:36;;;;;;;1.60;0.47;;;;;;;6.76;100.00;100515.59;4971623;28;20184;-75
2023/02/18 04:56:01;;;;;;;0.30;0.30;;;;;;;6.77;100.00;100511.78;4971390;28;20184;-73
2023/02/18 04:58:26;;;;;;;4.93;3.00;;;;;;;6.80;100.00;100511.22;4971657;28;20182;-73
2023/02/18 05:00:52;;;;;;;4.17;3.77;;;;;;;6.77;100.00;100496.28;4971487;28;20236;-75
2023/02/18 05:03:18;;;;;;;2.10;1.90;;;;;;;6.82;100.00;100498.97;4971722;28;20178;-74
2023/02/18 05:05:44;;;;;;;5.43;4.90;;;;;;;6.83;100.00;100497.06;4971305;28;20248;-75
2023/02/18 05:08:10;;;;;;;2.10;2.00;;;;;;;6.86;100.00;100491.06;4971556;28;20186;-70
2023/02/18 05:10:36;;;;;;;4.50;4.10;;;;;;;6.84;100.00;100485.94;4971608;28;20181;-76
2023/02/18 05:13:02;;;;;;;4.40;2.90;;;;;;;6.88;100.00;100482.63;4971550;28;20178;-76
2023/02/18 05:15:27;;;;;;;1.53;1.43;;;;;;;6.88;100.00;100483.44;4971338;28;20192;-75
2023/02/18 05:17:52;;;;;;;1.53;1.40;;;;;;;6.91;100.00;100469.28;4970135;28;20324;-75
2023/02/18 05:20:18;;;;;;;6.03;3.73;;;;;;;6.93;100.00;100467.09;4971360;28;20182;-75
2023/02/18 05:22:43;;;;;;;7.30;5.33;;;;;;;6.96;100.00;100468.44;4971326;28;20186;-77
2023/02/18 05:25:08;;;;;;;3.20;3.10;;;;;;;6.98;100.00;100463.53;4969830;28;20186;-73
2023/02/18 05:27:34;;;;;;;2.03;1.90;;;;;;;7.02;100.00;100461.84;4971295;28;20182;-75
2023/02/18 05:29:59;;;;;;;0.10;0.10;;;;;;;7.03;100.00;100449.88;4971366;28;20178;-77
2023/02/18 05:32:25;;;;;;;0.50;0.50;;;;;;;7.04;100.00;100452.31;4971445;28;20273;-75
2023/02/18 05:34:50;;;;;;;0.33;0.03;;;;;;;7.07;100.00;100443.59;4970962;28;20194;-72
2023/02/18 05:37:17;;;;;;;4.07;3.77;;;;;;;7.10;100.00;100431.34;4971096;28;20213;-78
2023/02/18 05:39:43;;;;;;;1.90;1.80;;;;;;;7.11;100.00;100436.50;4971315;28;20182;-73
2023/02/18 05:42:08;;;;;;;1.43;1.33;;;;;;;7.13;100.00;100426.16;4971431;28;20584;-77
2023/02/18 05:44:33;;;;;;;3.60;3.30;;;;;;;7.19;100.00;100421.44;4970947;28;20237;-74
2023/02/18 05:47:05;;;;;;;4.00;3.53;;;;;;;7.22;100.00;100417.34;4971224;28;20177;-74
2023/02/18 05:49:32;;;;;;;5.77;5.20;;;;;;;7.24;100.00;100423.31;4971138;28;20182;-74
2023/02/18 05:51:58;;;;;;;14.33;4.07;;;;;;;7.27;100.00;100420.03;4971085;28;20208;-71
2023/02/18 05:54:24;;;;;;;6.67;5.20;;;;;;;7.28;100.00;100416.19;4970902;28;20256;-72
2023/02/18 05:56:50;;;;;;;6.10;3.63;;;;;;;7.29;100.00;100402.31;4971182;28;20304;-73
2023/02/18 05:59:15;;;;;;;7.37;6.80;;;;;;;7.30;100.00;100395.78;4971421;28;20252;-71
2023/02/18 06:01:41;;;;;;;6.70;6.07;;;;;;;7.33;100.00;100403.34;4974635;28;20209;-73
2023/02/18 06:04:06;;;;;;;5.70;5.20;;;;;;;7.34;100.00;100393.28;4973116;28;20568;-72
2023/02/18 06:06:31;;;;;;;10.67;5.70;;;;;;;7.34;100.00;100385.13;4974577;28;20170;-74
2023/02/18 06:08:57;;;;;;;4.10;3.73;;;;;;;7.34;100.00;100375.06;4973177;28;20186;-73
2023/02/18 06:11:22;;;;;;;11.53;9.17;;;;;;;7.32;100.00;100373.75;4974456;28;20642;-76
2023/02/18 06:13:47;;;;;;;7.77;3.83;;;;;;;7.32;100.00;100369.13;4974317;28;20257;-73
2023/02/18 06:16:13;;;;;;;3.40;3.10;;;;;;;7.32;100.00;100362.88;4974236;28;20193;-73
2023/02/18 06:18:38;;;;;;;20.03;8.00;;;;;;;7.31;100.00;100369.41;4974340;28;20546;-73
2023/02/18 06:21:03;;;;;;;6.87;6.20;;;;;;;7.32;100.00;100360.16;4974201;28;20264;-74
2023/02/18 06:23:29;;;;;;;4.47;4.07;;;;;;;7.34;100.00;100360.69;4974248;28;20528;-72
2023/02/18 06:25:54;;;;;;;2.70;2.43;;;;;;;7.33;100.00;100346.28;4974043;28;20268;-72
2023/02/18 06:28:19;;;;;;;14.30;7.30;;;;;;;7.34;100.00;100344.38;4974150;28;20192;-73
2023/02/18 06:30:45;;;;;;;4.17;3.10;;;;;;;7.36;100.00;100345.69;4974176;28;20170;-74
2023/02/18 06:33:11;;;;;;;5.17;4.50;;;;;;;7.38;100.00;100326.41;4974087;28;20178;-71
2023/02/18 06:35:36;;;;;;;1.40;1.30;;;;;;;7.37;100.00;100322.84;4973661;28;20341;-73
2023/02/18 06:38:02;;;;;;;4.77;2.73;;;;;;;7.39;100.00;100322.59;4974171;28;20296;-72
2023/02/18 06:40:28;;;;;;;8.07;5.43;;;;;;;7.37;100.00;100324.75;4974048;28;20182;-71
2023/02/18 06:42:53;;;;;;;2.33;2.17;;;;;;;7.39;100.00;100325.31;4973981;28;20652;-74
2023/02/18 06:45:19;;;;;;;4.00;2.17;;;;;;;7.43;100.00;100307.28;4973697;28;20221;-71
2023/02/18 06:47:45;;;;;;;0.83;0.83;;;;;;;7.42;100.00;100297.53;4973864;28;20649;-73
2023/02/18 06:50:10;;;;;;;1.03;1.03;;;;;;;7.48;100.00;100296.34;4973824;28;20253;-73
2023/02/18 06:52:36;;;;;;;0.20;0.20;;;;;;;7.51;100.00;100287.59;4973912;28;20653;-71
2023/02/18 06:55:06;;;;;;;3.43;3.13;;;;;;;7.55;100.00;100277.75;4973619;28;20174;-69
2023/02/18 06:57:32;;;;;;;1.90;1.73;;;;;;;7.60;100.00;100271.44;4973843;28;20217;-73
2023/02/18 06:59:57;;;;;;;0.80;0.80;;;;;;;7.62;100.00;100270.03;4972322;28;20394;-74
2023/02/18 07:02:23;;;;;;;0.10;0.10;;;;;;;7.66;100.00;100262.06;4973956;28;20251;-72
2023/02/18 07:04:48;;;;;;;0.30;0.30;;;;;;;7.67;100.00;100259.09;4973328;28;20622;-74
2023/02/18 07:07:13;;;;;;;2.70;0.77;;;;;;;7.70;100.00;100252.25;4973594;28;20181;-74
2023/02/18 07:09:39;;;;;;;0.00;0.00;;;;;;;7.75;100.00;100246.72;4973656;28;20185;-71
2023/02/18 07:12:04;;;;;;;0.00;0.00;;;;;;;7.65;100.00;100234.09;4972191;28;20261;-72
2023/02/18 07:14:30;;;;;;;0.10;0.10;;;;;;;7.68;100.00;100219.91;4973098;28;20173;-73
2023/02/18 07:16:55;;;;;;;2.60;1.00;;;;;;;7.82;100.00;100219.16;4973277;28;20252;-70
2023/02/18 07:19:20;;;;;;;0.00;0.00;;;;;;;7.84;100.00;100219.66;4973815;28;20273;-73
2023/02/18 07:21:46;;;;;;;3.03;2.80;;;;;;;7.99;100.00;100205.78;4973184;28;20178;-72
2023/02/18 07:24:11;;;;;;;0.47;0.47;;;;;;;8.07;100.00;100195.00;4972954;28;20192;-71
2023/02/18 07:26:36;;;;;;;2.30;1.90;;;;;;;8.25;100.00;100197.97;4973142;28;20189;-72
2023/02/18 07:29:02;;;;;;;1.43;0.80;;;;;;;8.41;100.00;100191.13;4973154;28;20536;-71
2023/02/18 07:31:27;;;;;;;2.93;2.73;;;;;;;8.51;100.00;100180.00;4971687;28;20199;-74
2023/02/18 07:33:52;;;;;;;3.80;3.30;;;;;;;8.57;100.00;100172.56;4972676;28;20679;-72
2023/02/18 07:36:18;;;;;;;2.03;1.33;;;;;;;8.65;100.00;100164.47;4972992;28;20214;-71
2023/02/18 07:38:43;;;;;;;2.30;2.13;;;;;;;8.72;100.00;100153.16;4973005;28;20257;-72
2023/02/18 07:41:20;;;;;;;4.27;3.83;;;;;;;8.79;100.00;100158.19;4972928;28;20180;-72
2023/02/18 07:43:45;;;;;;;4.87;4.37;;;;;;;8.83;100.00;100160.00;4973051;28;20515;-71
2023/02/18 07:46:11;;;;;;;1.00;1.00;;;;;;;8.86;100.00;100162.13;4972771;28;20253;-71
2023/02/18 07:48:36;;;;;;;4.07;3.73;;;;;;;8.87;100.00;100169.19;4972938;28;20245;-72
2023/02/18 07:51:08;;;;;;;5.07;2.73;;;;;;;8.91;100.00;100164.72;4973233;28;20174;-71
2023/02/18 07:53:34;;;;;;;4.60;3.40;;;;;;;8.99;100.00;100167.84;4972996;28;20630;-72
2023/02/18 07:56:00;;;;;;;0.53;0.53;;;;;;;9.02;100.00;100164.50;4972962;28;20188;-75
2023/02/18 07:58:28;;;;;;;1.90;1.40;;;;;;;9.07;100.00;100165.16;4973070;28;20180;-73
2023/02/18 08:00:54;;;;;;;2.23;2.03;;;;;;;9.10;100.00;100170.00;4971465;28;20190;-71
2023/02/18 08:03:29;;;;;;;2.47;2.10;;;;;;;9.14;100.00;100168.28;4973005;28;20186;-73
2023/02/18 08:05:55;;;;;;;1.97;1.80;;;;;;;9.14;100.00;100168.28;4972549;28;20204;-72
2023/02/18 08:08:23;;;;;;;2.13;1.93;;;;;;;9.15;100.00;100156.28;4972578;28;20224;-73
2023/02/18 08:10:50;;;;;;;0.97;0.83;;;;;;;9.18;100.00;100155.66;4972195;28;20225;-76
2023/02/18 08:13:15;;;;;;;1.47;1.10;;;;;;;9.20;100.00;100156.13;4972261;28;20178;-76
2023/02/18 08:15:41;;;;;;;1.43;1.33;;;;;;;9.24;100.00;100148.16;4972524;28;20220;-74
2023/02/18 08:18:13;;;;;;;1.63;0.87;;;;;;;9.30;100.00;100144.19;4973038;28;20268;-76
2023/02/18 08:20:39;;;;;;;2.50;1.10;;;;;;;9.30;100.00;100149.66;4972705;28;20677;-73
2023/02/18 08:23:05;;;;;;;0.83;0.50;;;;;;;9.32;100.00;100161.03;4972022;28;20173;-73
2023/02/18 08:25:30;;;;;;;0.63;0.63;;;;;;;9.27;100.00;100163.91;4971799;28;20255;-76
2023/02/18 08:27:56;;;;;;;0.67;0.67;;;;;;;9.28;100.00;100148.34;4972009;28;20182;-76
2023/02/18 08:30:21;;;;;;;1.13;0.60;;;;;;;9.27;100.00;100142.09;4971930;28;20903;-73
2023/02/18 08:32:46;;;;;;;0.97;0.97;;;;;;;9.25;100.00;100141.56;4971994;28;20182;-76
2023/02/18 08:35:12;;;;;;;0.63;0.63;;;;;;;9.25;100.00;100144.31;4971595;28;20585;-74
2023/02/18 08:37:37;;;;;;;1.27;0.90;;;;;;;9.24;100.00;100138.03;4971995;28;20220;-73
2023/02/18 08:40:04;;;;;;;0.30;0.30;;;;;;;9.28;100.00;100146.44;4971880;28;20600;-73
2023/02/18 08:42:29;;;;;;;0.40;0.23;;;;;;;9.29;100.00;100145.31;4971727;28;20185;-71
2023/02/18 08:44:54;;;;;;;0.40;0.40;;;;;;;9.30;100.00;100130.56;4971562;28;20649;-75
2023/02/18 08:47:20;;;;;;;0.30;0.30;;;;;;;9.31;100.00;100143.06;4971768;28;20292;-75
2023/02/18 08:49:45;;;;;;;0.10;0.10;;;;;;;9.34;100.00;100130.75;4971831;28;20192;-75
2023/02/18 08:52:10;;;;;;;0.50;0.37;;;;;;;9.46;100.00;100139.16;4971685;28;20212;-75
2023/02/18 08:54:36;;;;;;;0.30;0.30;;;;;;;9.57;100.00;100128.81;4971853;28;20515;-73
2023/02/18 08:57:01;;;;;;;0.40;0.40;;;;;;;9.68;100.00;100141.84;4971534;28;20209;-77
2023/02/18 08:59:26;;;;;;;0.30;0.30;;;;;;;9.71;100.00;100126.81;4972052;28;20638;-76
2023/02/18 09:01:52;;;;;;;0.00;0.00;;;;;;;9.73;100.00;100132.75;4971581;28;20177;-77
2023/02/18 09:04:19;;;;;;;0.77;0.20;;;;;;;9.74;100.00;100123.44;4971383;28;20185;-76
2023/02/18 09:06:45;;;;;;;0.50;0.50;;;;;;;9.78;100.00;100138.88;4971521;28;20661;-76
2023/02/18 09:09:10;;;;;;;0.30;0.30;;;;;;;9.81;100.00;100145.59;4971556;28;20174;-76
2023/02/18 09:11:36;;;;;;;0.10;0.10;;;;;;;9.87;100.00;100147.09;4971341;28;20182;-75
2023/02/18 09:14:01;;;;;;;0.47;0.47;;;;;;;9.87;100.00;100138.91;4971292;28;20240;-76
2023/02/18 09:16:28;;;;;;;0.10;0.10;;;;;;;9.88;100.00;100132.34;4971479;28;20531;-77
2023/02/18 09:18:54;;;;;;;0.30;0.30;;;;;;;9.89;100.00;100123.03;4971471;28;20532;-75
2023/02/18 09:21:21;;;;;;;0.30;0.30;;;;;;;9.92;100.00;100137.97;4971407;28;20178;-77
2023/02/18 09:23:47;;;;;;;0.30;0.30;;;;;;;9.94;100.00;100117.41;4971380;28;20174;-76
2023/02/18 09:26:14;;;;;;;0.17;0.17;;;;;;;9.94;100.00;100114.69;4971198;28;20170;-75
2023/02/18 09:28:40;;;;;;;0.10;0.10;;;;;;;9.96;100.00;100114.38;4971359;28;20178;-77
2023/02/18 09:31:17;;;;;;;0.20;0.20;;;;;;;9.97;100.00;100116.78;4971485;28;20174;-76
2023/02/18 09:33:49;;;;;;;0.20;0.10;;;;;;;9.99;100.00;100117.31;4971289;28;20178;-76
2023/02/18 09:36:15;;;;;;;0.70;0.67;;;;;;;10.04;100.00;100119.06;4974569;28;20178;-77
2023/02/18 09:38:40;;;;;;;0.13;0.13;;;;;;;10.12;100.00;100132.72;4975078;28;20174;-76
2023/02/18 09:41:18;;;;;;;0.40;0.40;;;;;;;10.16;100.00;100123.94;4974909;28;20562;-76
2023/02/18 09:43:51;;;;;;;0.37;0.37;;;;;;;10.12;100.00;100124.53;4975065;28;20622;-77
2023/02/18 09:46:29;;;;;;;0.30;0.30;;;;;;;10.16;100.00;100130.19;4975018;28;20173;-77
2023/02/18 09:48:54;;;;;;;0.13;0.13;;;;;;;10.17;100.00;100142.72;4973800;28;20647;-76
2023/02/18 09:51:20;;;;;;;0.23;0.23;;;;;;;10.17;100.00;100125.53;4974798;28;20177;-76
2023/02/18 09:53:46;;;;;;;0.20;0.20;;;;;;;10.17;100.00;100129.06;4974761;28;20209;-76
2023/02/18 09:56:22;;;;;;;0.33;0.33;;;;;;;10.14;100.00;100124.25;4974612;28;20174;-76
2023/02/18 09:58:49;;;;;;;1.27;0.60;;;;;;;10.13;100.00;100118.00;4974750;28;20633;-77
2023/02/18 10:01:39;;;;;;;0.97;0.80;;;;;;;10.14;100.00;100111.41;4974673;28;20178;-76
2023/02/18 10:04:34;;;;;;;0.90;0.90;;;;;;;10.17;100.00;100114.63;4972732;28;20225;-77
2023/02/18 10:07:02;;;;;;;1.10;1.00;;;;;;;10.09;100.00;100122.44;4974552;28;20185;-77
2023/02/18 10:09:33;;;;;;;1.40;1.30;;;;;;;10.08;100.00;100112.66;4974523;28;20182;-76
2023/02/18 10:12:14;;;;;;;1.30;1.20;;;;;;;10.06;100.00;100122.28;4974573;28;20359;-78
2023/02/18 10:14:40;;;;;;;1.10;0.90;;;;;;;10.05;100.00;100109.75;4974191;28;20279;-77
2023/02/18 10:17:06;;;;;;;1.40;1.10;;;;;;;10.05;100.00;100099.66;4974339;28;20292;-76
2023/02/18 10:19:35;;;;;;;0.60;0.60;;;;;;;10.09;100.00;100092.44;4974452;28;20184;-76
2023/02/18 10:22:03;;;;;;;0.60;0.60;;;;;;;10.08;100.00;100100.94;4974254;28;20280;-76
2023/02/18 10:24:31;;;;;;;1.57;1.47;;;;;;;10.13;100.00;100093.44;4974040;28;20221;-78
2023/02/18 10:26:57;;;;;;;1.40;1.30;;;;;;;10.17;100.00;100104.50;4974232;28;20209;-75
2023/02/18 10:29:24;;;;;;;3.40;1.13;;;;;;;10.26;100.00;100074.50;4974237;28;20261;-75
2023/02/18 10:31:56;;;;;;;1.20;1.20;;;;;;;10.27;100.00;100111.63;4974155;28;20189;-77
2023/02/18 10:34:35;;;;;;;1.50;1.40;;;;;;;10.24;100.00;100112.25;4973775;28;20245;-77
2023/02/18 10:37:14;;;;;;;1.57;1.47;;;;;;;10.25;100.00;100113.84;4973825;28;20197;-77
2023/02/18 10:39:49;;;;;;;1.37;1.27;;;;;;;10.23;100.00;100103.25;4974056;28;20241;-75
2023/02/18 10:42:36;;;;;;;1.10;1.10;;;;;;;10.27;100.00;100106.16;4974097;28;20535;-75
2023/02/18 10:45:07;;;;;;;1.20;1.10;;;;;;;10.23;100.00;100114.19;4973750;28;20174;-74
2023/02/18 10:47:41;;;;;;;1.37;1.27;;;;;;;10.20;100.00;100097.59;4973513;28;20209;-73
2023/02/18 10:50:15;;;;;;;1.67;1.57;;;;;;;10.16;100.00;100111.09;4973896;28;20271;-77
2023/02/18 10:52:48;;;;;;;2.10;1.90;;;;;;;10.03;100.00;100107.34;4973632;28;20591;-76
2023/02/18 10:55:17;;;;;;;1.97;1.87;;;;;;;9.93;100.00;100090.44;4973651;28;20660;-75
2023/02/18 10:57:51;;;;;;;2.67;2.47;;;;;;;9.85;100.00;100092.03;4973657;28;20194;-76
2023/02/18 11:00:27;;;;;;;2.80;2.60;;;;;;;9.84;100.00;100099.44;4973623;28;20177;-75
2023/02/18 11:03:21;;;;;;;1.57;1.47;;;;;;;9.84;100.00;100090.44;4973694;28;20154;-77
2023/02/18 11:05:49;;;;;;;2.57;2.37;;;;;;;9.83;100.00;100092.34;4973341;28;20190;-72
2023/02/18 11:08:37;;;;;;;2.57;2.43;;;;;;;9.91;100.00;100065.41;4973460;28;20177;-73
2023/02/18 11:11:15;;;;;;;2.73;2.63;;;;;;;9.96;100.00;100071.50;4973447;28;20174;-71
2023/02/18 11:13:40;;;;;;;2.50;2.30;;;;;;;9.95;100.00;100080.03;4973283;28;20185;-72
2023/02/18 11:16:08;;;;;;;2.77;2.47;;;;;;;9.93;100.00;100074.06;4973158;28;20190;-75
2023/02/18 11:18:45;;;;;;;2.10;2.00;;;;;;;9.92;100.00;100081.47;4973309;28;20178;-72
2023/02/18 11:21:27;;;;;;;0.87;0.87;;;;;;;9.89;100.00;100094.94;4973177;28;20245;-75
2023/02/18 11:23:54;;;;;;;3.57;2.10;;;;;;;9.82;100.00;100090.72;4972931;28;20181;-76
2023/02/18 11:26:28;;;;;;;2.67;2.47;;;;;;;9.79;100.00;100066.00;4973137;28;20224;-77
2023/02/18 11:29:00;;;;;;;2.60;2.40;;;;;;;9.75;100.00;100093.13;4973152;28;20184;-76
2023/02/18 11:31:36;;;;;;;2.67;2.13;;;;;;;9.73;100.00;100091.81;4972923;28;20563;-76
2023/02/18 11:34:02;;;;;;;1.40;1.30;;;;;;;9.76;100.00;100083.00;4972693;28;20185;-74
2023/02/18 11:36:30;;;;;;;1.23;1.20;;;;;;;9.72;100.00;100071.13;4972839;28;20264;-76